Terminal Aerodrome Forecast
Issued by NWS

Home | Current Version | Previous Version | Text Only | Print | Product List | Glossary On
Versions: 1 2 3 4 5 6 7 8 9 10 11 12 13 14 15 16 17
000
FTUS42 KRAH 222327
TAFINT
TAF
KINT 222327Z 2300/2324 25006KT P6SM FEW060 BKN250
     FM231900 22010G16KT P6SM SCT060 BKN250 PROB30 2320/2324
      VRB15G30KT 2SM TSRA BKN025CB=

USA.gov is the U.S. government's official web portal to all federal, state and local government web resources and services.